createdAt,value
2019-01-19T00:00:24.314Z,17.33
2019-01-19T00:04:05.837Z,17.50
2019-01-19T00:07:11.990Z,18.00
2019-01-19T00:10:45.477Z,16.47
2019-01-19T00:14:16.169Z,17.97
2019-01-19T00:18:06.481Z,17.07
2019-01-19T00:21:39.094Z,18.13
2019-01-19T00:25:01.478Z,18.13
2019-01-19T00:28:06.647Z,17.37
2019-01-19T00:31:18.891Z,17.20
2019-01-19T00:34:48.577Z,17.47
2019-01-19T00:38:15.761Z,16.50
2019-01-19T00:42:09.761Z,16.70
2019-01-19T00:45:29.779Z,16.47
2019-01-19T00:49:03.434Z,15.97
2019-01-19T00:52:31.472Z,16.73
2019-01-19T00:55:58.992Z,16.47
2019-01-19T00:59:02.598Z,17.00
2019-01-19T01:02:28.201Z,16.00
2019-01-19T01:05:51.860Z,16.07
2019-01-19T01:09:22.912Z,15.97
2019-01-19T01:12:40.776Z,15.97
2019-01-19T01:16:07.135Z,15.17
2019-01-19T01:19:25.352Z,15.43
2019-01-19T01:23:02.400Z,15.30
2019-01-19T01:26:22.566Z,15.47
2019-01-19T01:30:08.261Z,16.37
2019-01-19T01:33:33.967Z,15.47
2019-01-19T01:36:50.829Z,16.03
2019-01-19T01:40:11.800Z,16.13
2019-01-19T01:43:25.860Z,15.70
2019-01-19T01:46:56.979Z,15.47
2019-01-19T01:50:05.876Z,15.87
2019-01-19T01:53:35.673Z,15.77
2019-01-19T01:56:27.732Z,16.30
2019-01-19T01:59:48.865Z,16.77
2019-01-19T02:03:05.419Z,17.07
2019-01-19T02:06:38.343Z,17.50
2019-01-19T02:09:39.175Z,16.13
2019-01-19T02:13:06.543Z,15.93
2019-01-19T02:16:36.991Z,16.97
2019-01-19T02:19:57.215Z,16.70
2019-01-19T02:23:19.515Z,15.73
2019-01-19T02:27:01.430Z,16.77
2019-01-19T02:30:17.592Z,18.77
2019-01-19T02:33:38.405Z,17.50
2019-01-19T02:37:27.201Z,17.47
2019-01-19T02:40:34.046Z,18.20
2019-01-19T02:44:12.660Z,19.17
2019-01-19T02:47:14.509Z,19.00
2019-01-19T02:50:32.986Z,19.50
2019-01-19T02:54:00.423Z,19.87
2019-01-19T02:57:26.443Z,19.73
2019-01-19T03:00:27.385Z,20.50
2019-01-19T03:03:33.461Z,21.30
2019-01-19T03:06:58.459Z,20.40
2019-01-19T03:10:17.835Z,21.07
2019-01-19T03:13:25.127Z,21.87
2019-01-19T03:17:04.555Z,20.07
2019-01-19T03:20:39.397Z,21.43
2019-01-19T03:24:06.981Z,19.33
2019-01-19T03:27:26.248Z,20.60
2019-01-19T03:31:05.669Z,20.13
2019-01-19T03:34:33.142Z,21.37
2019-01-19T03:37:51.291Z,21.00
2019-01-19T03:41:29.367Z,21.63
2019-01-19T03:44:42.833Z,21.03
2019-01-19T03:47:59.658Z,21.30
2019-01-19T03:51:35.647Z,20.10
2019-01-19T03:54:39.902Z,20.37
2019-01-19T03:58:12.634Z,19.20
2019-01-19T04:01:16.604Z,20.73
2019-01-19T04:04:24.300Z,18.80
2019-01-19T04:07:30.292Z,20.10
2019-01-19T04:10:35.625Z,20.50
2019-01-19T04:13:47.010Z,20.03
2019-01-19T04:17:12.438Z,20.03
2019-01-19T04:20:33.668Z,19.90
2019-01-19T04:23:22.781Z,19.73
2019-01-19T04:26:23.465Z,20.00
2019-01-19T04:29:12.714Z,19.77
2019-01-19T04:32:01.675Z,20.30
2019-01-19T04:34:50.737Z,20.43
2019-01-19T04:37:40.427Z,20.73
2019-01-19T04:40:29.951Z,20.17
2019-01-19T04:43:19.256Z,19.93
2019-01-19T04:46:08.083Z,20.60
2019-01-19T04:48:56.816Z,19.93
2019-01-19T04:51:47.922Z,20.13
2019-01-19T04:54:36.964Z,20.47
2019-01-19T04:57:25.278Z,20.33
2019-01-19T05:00:17.942Z,19.90
2019-01-19T05:03:06.858Z,19.63
2019-01-19T05:05:55.731Z,20.30
2019-01-19T05:08:44.243Z,20.80
2019-01-19T05:11:33.061Z,20.03
2019-01-19T05:14:21.803Z,19.20
2019-01-19T05:17:10.514Z,19.37
2019-01-19T05:20:00.013Z,19.23
2019-01-19T05:22:48.777Z,19.43
2019-01-19T05:25:37.447Z,19.97
2019-01-19T05:28:31.755Z,19.93
2019-01-19T05:31:20.475Z,20.87
2019-01-19T05:34:09.851Z,19.00
2019-01-19T05:36:58.864Z,20.40
2019-01-19T05:39:48.207Z,20.37
2019-01-19T05:42:37.390Z,19.83
2019-01-19T05:45:25.624Z,21.27
2019-01-19T05:48:14.686Z,23.00
2019-01-19T05:51:03.776Z,23.90
2019-01-19T05:53:53.250Z,25.47
2019-01-19T05:56:42.131Z,27.23
2019-01-19T05:59:30.363Z,26.37
2019-01-19T06:02:20.573Z,26.97
2019-01-19T06:05:09.786Z,26.67
2019-01-19T06:07:58.280Z,28.27
2019-01-19T06:10:46.971Z,27.20
2019-01-19T06:13:35.548Z,26.93
2019-01-19T06:16:25.553Z,28.10
2019-01-19T06:19:15.662Z,27.83
2019-01-19T06:22:05.043Z,28.03
2019-01-19T06:24:53.892Z,28.33
2019-01-19T06:27:42.064Z,26.77
2019-01-19T06:30:31.387Z,26.00
2019-01-19T06:33:20.525Z,27.17
2019-01-19T06:36:09.630Z,26.33
2019-01-19T06:38:59.458Z,25.93
2019-01-19T06:41:51.845Z,26.70
2019-01-19T06:44:40.790Z,27.07
2019-01-19T06:47:29.561Z,25.70
2019-01-19T06:50:20.316Z,26.40
2019-01-19T06:53:09.139Z,26.17
2019-01-19T06:55:57.484Z,27.33
2019-01-19T06:58:46.745Z,26.90
2019-01-19T07:01:36.100Z,27.83
2019-01-19T07:04:25.305Z,28.90
2019-01-19T07:07:14.333Z,27.93
2019-01-19T07:10:03.324Z,27.77
2019-01-19T07:12:52.217Z,28.17
2019-01-19T07:15:40.847Z,27.50
2019-01-19T07:18:29.481Z,27.47
2019-01-19T07:21:17.834Z,28.73
2019-01-19T07:24:06.462Z,26.93
2019-01-19T07:26:54.929Z,28.20
2019-01-19T07:29:44.746Z,27.57
2019-01-19T07:32:33.714Z,27.70
2019-01-19T07:35:24.844Z,26.73
2019-01-19T07:38:14.447Z,27.47
2019-01-19T07:41:02.957Z,26.23
2019-01-19T07:43:52.750Z,27.73
2019-01-19T07:46:42.055Z,27.77
2019-01-19T07:49:31.376Z,26.77
2019-01-19T07:52:20.027Z,26.77
2019-01-19T07:55:10.810Z,27.80
2019-01-19T07:57:59.458Z,28.03
2019-01-19T08:00:48.930Z,26.20
2019-01-19T08:03:42.239Z,26.43
2019-01-19T08:06:31.606Z,27.63
2019-01-19T08:09:20.295Z,27.87
2019-01-19T08:12:09.573Z,27.67
2019-01-19T08:14:58.228Z,28.60
2019-01-19T08:17:47.146Z,28.03
2019-01-19T08:20:35.843Z,27.30
2019-01-19T08:23:24.371Z,27.80
2019-01-19T08:26:13.496Z,27.43
2019-01-19T08:29:02.813Z,26.93
2019-01-19T08:31:51.330Z,27.23
2019-01-19T08:34:41.143Z,26.53
2019-01-19T08:37:30.014Z,25.20
2019-01-19T08:40:21.271Z,26.50
2019-01-19T08:43:30.150Z,26.50
2019-01-19T08:46:18.198Z,25.33
2019-01-19T08:49:08.218Z,25.10
2019-01-19T08:51:57.037Z,25.27
2019-01-19T08:54:45.735Z,24.67
2019-01-19T08:57:34.394Z,23.77
2019-01-19T09:00:23.187Z,23.90
2019-01-19T09:03:11.907Z,23.20
2019-01-19T09:06:20.452Z,25.13
2019-01-19T09:09:09.876Z,23.13
2019-01-19T09:12:02.417Z,23.07
2019-01-19T09:14:51.646Z,22.73
2019-01-19T09:18:00.565Z,23.03
2019-01-19T09:20:54.693Z,22.40
2019-01-19T09:23:49.853Z,21.57
2019-01-19T09:26:41.407Z,20.90
2019-01-19T09:29:29.925Z,21.17
2019-01-19T09:32:18.796Z,20.23
2019-01-19T09:35:07.991Z,20.13
2019-01-19T09:37:56.895Z,20.17
2019-01-19T09:40:45.524Z,19.90
2019-01-19T09:43:34.455Z,20.47
2019-01-19T09:46:22.602Z,20.43
2019-01-19T09:49:12.154Z,20.03
2019-01-19T09:52:00.767Z,19.53
2019-01-19T09:54:50.752Z,18.97
2019-01-19T09:57:40.044Z,19.30
2019-01-19T10:00:35.523Z,18.80
2019-01-19T10:03:18.153Z,19.27
2019-01-19T10:06:07.523Z,19.10
2019-01-19T10:08:56.687Z,19.43
2019-01-19T10:11:46.409Z,19.07
2019-01-19T10:14:35.591Z,18.60
2019-01-19T10:17:25.765Z,17.70
2019-01-19T10:20:18.219Z,18.20
2019-01-19T10:23:08.292Z,19.77
2019-01-19T10:26:01.873Z,18.63
2019-01-19T10:28:50.929Z,18.90
2019-01-19T10:31:40.138Z,19.90
2019-01-19T10:34:29.223Z,19.47
2019-01-19T10:37:17.849Z,19.57
2019-01-19T10:40:08.116Z,20.10
2019-01-19T10:42:57.254Z,19.80
2019-01-19T10:45:45.994Z,19.03
2019-01-19T10:48:34.689Z,19.83
2019-01-19T10:51:23.489Z,19.27
2019-01-19T10:54:13.583Z,17.50
2019-01-19T10:57:02.961Z,17.37
2019-01-19T10:59:52.081Z,15.73
2019-01-19T11:02:40.658Z,15.17
2019-01-19T11:05:30.331Z,14.60
2019-01-19T11:08:18.961Z,14.23
2019-01-19T11:11:07.680Z,15.50
2019-01-19T11:13:56.703Z,14.17
2019-01-19T11:16:45.828Z,13.57
2019-01-19T11:19:34.751Z,14.37
2019-01-19T11:22:24.331Z,14.30
2019-01-19T11:25:14.578Z,13.97
2019-01-19T11:28:03.500Z,14.30
2019-01-19T11:30:52.625Z,14.83
2019-01-19T11:33:41.721Z,13.53
2019-01-19T11:36:34.050Z,14.20
2019-01-19T11:39:23.883Z,14.20
2019-01-19T11:42:12.997Z,14.07
2019-01-19T11:45:02.097Z,13.43
2019-01-19T11:47:52.421Z,12.90
2019-01-19T11:50:41.770Z,13.70
2019-01-19T11:53:31.220Z,13.37
2019-01-19T11:56:39.130Z,13.43
2019-01-19T11:59:30.379Z,14.10
2019-01-19T12:02:19.634Z,13.47
2019-01-19T12:05:10.912Z,12.80
2019-01-19T12:08:01.376Z,13.00
2019-01-19T12:11:12.758Z,13.73
2019-01-19T12:14:01.504Z,13.27
2019-01-19T12:17:09.580Z,13.33
2019-01-19T12:19:59.221Z,12.57
2019-01-19T12:22:48.979Z,13.20
2019-01-19T12:25:38.216Z,12.90
2019-01-19T12:28:30.036Z,13.47
2019-01-19T12:31:19.974Z,13.30
2019-01-19T12:34:08.427Z,13.40
2019-01-19T12:36:57.475Z,13.70
2019-01-19T12:39:46.428Z,14.93
2019-01-19T12:42:34.980Z,13.90
2019-01-19T12:45:29.269Z,13.97
2019-01-19T12:48:18.433Z,13.40
2019-01-19T12:51:09.901Z,13.47
2019-01-19T12:53:58.832Z,14.17
2019-01-19T12:56:47.665Z,12.87
2019-01-19T12:59:37.229Z,12.87
2019-01-19T13:02:26.310Z,13.00
2019-01-19T13:05:21.006Z,12.47
2019-01-19T13:08:12.115Z,12.53
2019-01-19T13:11:24.901Z,12.03
2019-01-19T13:14:13.441Z,11.80
2019-01-19T13:17:55.044Z,11.77
2019-01-19T13:21:30.244Z,11.57
2019-01-19T13:24:30.527Z,11.47
2019-01-19T13:27:43.407Z,11.23
2019-01-19T13:30:54.557Z,10.73
2019-01-19T13:34:38.181Z,11.30
2019-01-19T13:38:10.791Z,10.73
2019-01-19T13:41:36.457Z,10.17
2019-01-19T13:44:59.805Z,10.40
2019-01-19T13:48:07.631Z,10.00
2019-01-19T13:51:19.530Z,10.37
2019-01-19T13:54:20.939Z,10.40
2019-01-19T13:57:36.568Z,10.23
2019-01-19T14:00:51.342Z,10.60
2019-01-19T14:04:08.931Z,10.23
2019-01-19T14:07:46.433Z,10.17
2019-01-19T14:11:21.903Z,10.23
2019-01-19T14:14:31.814Z,10.23
2019-01-19T14:17:51.157Z,10.50
2019-01-19T14:21:13.160Z,11.27
2019-01-19T14:24:34.329Z,12.37
2019-01-19T14:28:00.676Z,11.70
2019-01-19T14:31:48.723Z,12.00
2019-01-19T14:35:05.066Z,11.63
2019-01-19T14:38:20.159Z,12.03
2019-01-19T14:42:02.307Z,13.70
2019-01-19T14:45:31.712Z,13.73
2019-01-19T14:48:56.720Z,12.80
2019-01-19T14:52:35.815Z,14.77
2019-01-19T14:56:19.851Z,14.20
2019-01-19T14:59:38.792Z,14.40
2019-01-19T15:03:04.591Z,14.60
2019-01-19T15:06:25.871Z,14.83
2019-01-19T15:09:45.729Z,16.27
2019-01-19T15:13:15.813Z,16.50
2019-01-19T15:16:42.067Z,15.90
2019-01-19T15:20:06.490Z,15.93
2019-01-19T15:23:35.723Z,15.53
2019-01-19T15:27:13.482Z,15.57
2019-01-19T15:30:31.563Z,15.37
2019-01-19T15:33:46.234Z,17.17
2019-01-19T15:37:09.171Z,17.43
2019-01-19T15:40:34.635Z,18.10
2019-01-19T15:43:51.482Z,18.07
2019-01-19T15:47:05.622Z,18.77
2019-01-19T15:50:38.089Z,18.80
2019-01-19T15:54:16.578Z,19.93
2019-01-19T15:57:36.074Z,18.97
2019-01-19T16:01:16.056Z,19.97
2019-01-19T16:04:32.980Z,19.70
2019-01-19T16:08:00.185Z,19.87
2019-01-19T16:11:28.923Z,20.63
2019-01-19T16:14:47.728Z,20.10
2019-01-19T16:18:07.680Z,19.83
2019-01-19T16:21:24.908Z,20.97
2019-01-19T16:24:30.028Z,20.30
2019-01-19T16:27:47.745Z,19.07
2019-01-19T16:31:16.023Z,20.73
2019-01-19T16:34:41.696Z,19.60
2019-01-19T16:37:59.862Z,19.17
2019-01-19T16:41:18.992Z,19.47
2019-01-19T16:44:38.456Z,20.73
2019-01-19T16:47:57.061Z,19.60
2019-01-19T16:51:37.376Z,21.07
2019-01-19T16:55:01.072Z,22.60
2019-01-19T16:58:48.266Z,21.20
2019-01-19T17:02:16.495Z,20.30
2019-01-19T17:05:18.744Z,20.03
2019-01-19T17:08:32.302Z,19.40
2019-01-19T17:11:46.064Z,18.83
2019-01-19T17:15:07.425Z,19.40
2019-01-19T17:18:21.575Z,18.93
2019-01-19T17:21:55.213Z,19.77
2019-01-19T17:25:20.711Z,19.03
2019-01-19T17:28:35.194Z,19.17
2019-01-19T17:32:23.357Z,18.77
2019-01-19T17:36:01.648Z,19.40
2019-01-19T17:39:28.345Z,19.70
2019-01-19T17:42:43.056Z,18.90
2019-01-19T17:46:06.324Z,18.53
2019-01-19T17:49:15.742Z,19.33
2019-01-19T17:52:52.141Z,18.93
2019-01-19T17:56:13.920Z,18.93
2019-01-19T17:59:41.838Z,18.93
2019-01-19T18:03:39.440Z,19.17
2019-01-19T18:07:15.265Z,18.93
2019-01-19T18:10:38.134Z,19.57
2019-01-19T18:14:01.834Z,19.13
2019-01-19T18:17:27.169Z,19.37
2019-01-19T18:20:54.888Z,19.40
2019-01-19T18:24:25.966Z,19.10
2019-01-19T18:27:39.078Z,20.40
2019-01-19T18:31:10.800Z,19.80
2019-01-19T18:34:21.192Z,21.27
2019-01-19T18:37:30.744Z,20.37
2019-01-19T18:41:06.954Z,20.57
2019-01-19T18:44:36.553Z,20.23
2019-01-19T18:47:44.125Z,20.77
2019-01-19T18:51:06.617Z,20.97
2019-01-19T18:54:32.000Z,20.47
2019-01-19T18:57:56.254Z,22.07
2019-01-19T19:01:13.000Z,21.77
2019-01-19T19:05:03.204Z,20.67
2019-01-19T19:08:19.623Z,21.20
2019-01-19T19:11:39.265Z,20.70
2019-01-19T19:15:19.070Z,19.77
2019-01-19T19:18:33.274Z,20.40
2019-01-19T19:21:55.581Z,19.43
2019-01-19T19:25:31.534Z,19.40
2019-01-19T19:28:46.698Z,19.27
2019-01-19T19:32:43.828Z,19.63
2019-01-19T19:36:13.229Z,18.63
2019-01-19T19:39:30.885Z,20.07
2019-01-19T19:43:18.455Z,20.33
2019-01-19T19:46:48.549Z,20.03
2019-01-19T19:50:06.860Z,20.70
2019-01-19T19:52:55.991Z,20.93
2019-01-19T19:55:43.888Z,20.93
2019-01-19T19:58:32.586Z,21.37
2019-01-19T20:01:21.105Z,21.53
2019-01-19T20:04:09.720Z,21.90
2019-01-19T20:06:59.355Z,22.60
2019-01-19T20:09:48.188Z,23.30
2019-01-19T20:12:37.031Z,24.90
2019-01-19T20:15:30.265Z,27.43
2019-01-19T20:18:19.385Z,26.40
2019-01-19T20:21:08.314Z,29.57
2019-01-19T20:23:56.969Z,29.50
2019-01-19T20:26:45.864Z,32.37
2019-01-19T20:29:35.464Z,31.33
2019-01-19T20:32:24.781Z,31.20
2019-01-19T20:35:13.569Z,33.07
2019-01-19T20:38:01.889Z,32.40
2019-01-19T20:40:50.800Z,32.07
2019-01-19T20:43:39.802Z,31.60
2019-01-19T20:46:35.890Z,29.40
2019-01-19T20:49:24.782Z,26.80
2019-01-19T20:52:13.793Z,26.43
2019-01-19T20:55:02.873Z,26.47
2019-01-19T20:57:52.862Z,27.63
2019-01-19T21:00:42.954Z,24.73
2019-01-19T21:03:31.812Z,24.50
2019-01-19T21:06:20.696Z,24.13
2019-01-19T21:09:11.633Z,24.17
2019-01-19T21:12:00.997Z,24.43
2019-01-19T21:14:49.636Z,25.47
2019-01-19T21:17:38.113Z,27.77
2019-01-19T21:20:26.972Z,29.30
2019-01-19T21:23:15.583Z,30.27
2019-01-19T21:26:04.645Z,30.43
2019-01-19T21:28:53.952Z,31.60
2019-01-19T21:31:43.977Z,30.50
2019-01-19T21:34:32.469Z,30.43
2019-01-19T21:37:20.972Z,30.83
2019-01-19T21:40:11.515Z,33.00
2019-01-19T21:43:00.558Z,33.00
2019-01-19T21:45:48.972Z,33.17
2019-01-19T21:48:38.412Z,40.50
2019-01-19T21:51:26.475Z,37.53
2019-01-19T21:54:14.989Z,36.93
2019-01-19T21:57:03.146Z,32.03
2019-01-19T21:59:52.194Z,31.17
2019-01-19T22:02:41.185Z,30.70
2019-01-19T22:05:31.557Z,28.93
2019-01-19T22:08:20.564Z,27.77
2019-01-19T22:11:09.102Z,29.83
2019-01-19T22:13:57.297Z,27.90
2019-01-19T22:16:46.999Z,28.97
2019-01-19T22:19:35.676Z,29.07
2019-01-19T22:22:25.561Z,29.80
2019-01-19T22:25:14.637Z,29.50
2019-01-19T22:28:02.794Z,30.63
2019-01-19T22:30:50.991Z,30.77
2019-01-19T22:33:39.203Z,30.77
2019-01-19T22:36:27.804Z,30.07
2019-01-19T22:39:17.154Z,29.33
2019-01-19T22:42:06.096Z,30.27
2019-01-19T22:44:54.324Z,30.07
2019-01-19T22:47:42.692Z,32.07
2019-01-19T22:50:30.819Z,31.20
2019-01-19T22:53:19.275Z,30.40
2019-01-19T22:56:08.685Z,32.27
2019-01-19T22:58:57.344Z,31.13
2019-01-19T23:02:09.833Z,31.67
2019-01-19T23:04:58.307Z,29.43
2019-01-19T23:07:46.340Z,31.87
2019-01-19T23:10:34.494Z,31.73
2019-01-19T23:13:22.577Z,29.67
2019-01-19T23:16:11.870Z,30.10
2019-01-19T23:19:00.454Z,30.37
2019-01-19T23:21:49.663Z,29.87
2019-01-19T23:24:38.456Z,30.60
2019-01-19T23:27:28.666Z,30.50
2019-01-19T23:30:16.947Z,29.53
2019-01-19T23:33:05.534Z,30.60
2019-01-19T23:35:54.544Z,29.57
2019-01-19T23:38:44.148Z,29.43
2019-01-19T23:41:32.778Z,31.10
2019-01-19T23:44:21.384Z,31.17
2019-01-19T23:47:09.642Z,30.93
2019-01-19T23:49:57.924Z,30.97
2019-01-19T23:52:47.109Z,31.10
2019-01-19T23:55:35.939Z,33.20
2019-01-19T23:58:24.022Z,30.10
